createdAt,value
2018-12-15T00:02:09.052Z,18.43
2018-12-15T00:04:37.305Z,19.97
2018-12-15T00:07:05.639Z,20.63
2018-12-15T00:09:33.958Z,18.70
2018-12-15T00:12:02.274Z,18.43
2018-12-15T00:14:30.508Z,18.20
2018-12-15T00:17:05.534Z,18.43
2018-12-15T00:19:29.098Z,18.97
2018-12-15T00:21:57.304Z,16.67
2018-12-15T00:24:25.543Z,18.33
2018-12-15T00:26:53.771Z,17.60
2018-12-15T00:29:22.013Z,17.43
2018-12-15T00:31:50.227Z,17.10
2018-12-15T00:34:18.456Z,17.60
2018-12-15T00:36:46.652Z,18.27
2018-12-15T00:39:14.912Z,17.17
2018-12-15T00:41:43.218Z,19.53
2018-12-15T00:44:11.432Z,18.53
2018-12-15T00:46:39.623Z,18.20
2018-12-15T00:49:07.828Z,17.73
2018-12-15T00:51:36.037Z,19.10
2018-12-15T00:54:04.324Z,17.60
2018-12-15T00:56:32.610Z,18.60
2018-12-15T00:59:00.817Z,19.20
2018-12-15T01:01:29.087Z,18.00
2018-12-15T01:03:57.296Z,19.93
2018-12-15T01:06:25.488Z,18.47
2018-12-15T01:08:53.696Z,18.37
2018-12-15T01:11:21.912Z,17.80
2018-12-15T01:13:50.103Z,17.33
2018-12-15T01:16:18.462Z,18.23
2018-12-15T01:18:46.672Z,17.67
2018-12-15T01:21:14.879Z,19.03
2018-12-15T01:23:43.082Z,19.13
2018-12-15T01:26:11.296Z,17.77
2018-12-15T01:28:39.532Z,18.10
2018-12-15T01:31:07.732Z,17.70
2018-12-15T01:33:35.952Z,17.03
2018-12-15T01:36:04.179Z,17.70
2018-12-15T01:38:32.388Z,17.70
2018-12-15T01:41:00.629Z,20.43
2018-12-15T01:43:28.846Z,16.63
2018-12-15T01:45:57.075Z,17.63
2018-12-15T01:48:25.283Z,17.20
2018-12-15T01:50:53.513Z,18.47
2018-12-15T01:53:21.711Z,18.70
2018-12-15T01:55:50.020Z,17.60
2018-12-15T01:58:18.220Z,17.57
2018-12-15T02:00:46.623Z,19.00
2018-12-15T02:03:14.845Z,18.10
2018-12-15T02:05:43.124Z,17.50
2018-12-15T02:08:11.348Z,19.23
2018-12-15T02:10:39.574Z,18.50
2018-12-15T02:13:07.886Z,17.93
2018-12-15T02:15:36.116Z,18.73
2018-12-15T02:18:04.500Z,19.93
2018-12-15T02:20:32.726Z,17.13
2018-12-15T02:23:00.931Z,16.23
2018-12-15T02:25:29.148Z,18.80
2018-12-15T02:27:57.457Z,20.90
2018-12-15T02:30:25.767Z,17.33
2018-12-15T02:32:54.009Z,18.80
2018-12-15T02:35:22.224Z,19.20
2018-12-15T02:37:50.445Z,17.67
2018-12-15T02:40:18.655Z,19.20
2018-12-15T02:42:46.873Z,18.23
2018-12-15T02:45:15.084Z,19.07
2018-12-15T02:47:43.392Z,18.03
2018-12-15T02:50:11.995Z,19.30
2018-12-15T02:52:40.331Z,18.97
2018-12-15T02:55:08.655Z,18.10
2018-12-15T02:57:36.881Z,18.20
2018-12-15T03:00:05.570Z,19.47
2018-12-15T03:02:33.832Z,19.23
2018-12-15T03:05:02.063Z,19.33
2018-12-15T03:07:30.366Z,18.37
2018-12-15T03:09:58.587Z,17.17
2018-12-15T03:12:26.833Z,19.23
2018-12-15T03:14:55.150Z,17.80
2018-12-15T03:17:23.369Z,17.77
2018-12-15T03:19:51.593Z,17.67
2018-12-15T03:22:19.817Z,18.80
2018-12-15T03:24:48.055Z,17.97
2018-12-15T03:27:16.281Z,18.97
2018-12-15T03:29:44.504Z,18.40
2018-12-15T03:32:12.721Z,19.77
2018-12-15T03:34:41.039Z,19.03
2018-12-15T03:37:09.273Z,19.70
2018-12-15T03:39:37.518Z,17.70
2018-12-15T03:42:05.813Z,18.90
2018-12-15T03:44:34.022Z,19.30
2018-12-15T03:47:02.248Z,17.90
2018-12-15T03:49:30.459Z,17.80
2018-12-15T03:51:58.704Z,18.73
2018-12-15T03:54:26.916Z,17.93
2018-12-15T03:56:55.144Z,15.90
2018-12-15T03:59:23.659Z,18.93
2018-12-15T04:01:51.972Z,19.03
2018-12-15T04:04:20.180Z,19.37
2018-12-15T04:06:48.416Z,18.73
2018-12-15T04:09:16.620Z,20.50
2018-12-15T04:11:44.849Z,17.67
2018-12-15T04:14:13.060Z,18.90
2018-12-15T04:16:41.300Z,19.10
2018-12-15T04:19:09.528Z,19.17
2018-12-15T04:21:37.759Z,19.93
2018-12-15T04:24:05.995Z,19.47
2018-12-15T04:26:34.216Z,19.40
2018-12-15T04:29:02.427Z,19.47
2018-12-15T04:31:30.649Z,19.63
2018-12-15T04:33:58.858Z,19.20
2018-12-15T04:36:27.086Z,19.30
2018-12-15T04:38:55.303Z,19.47
2018-12-15T04:41:23.528Z,19.47
2018-12-15T04:43:52.052Z,18.80
2018-12-15T04:46:20.365Z,18.03
2018-12-15T04:48:48.709Z,20.20
2018-12-15T04:51:16.943Z,19.47
2018-12-15T04:53:45.163Z,19.87
2018-12-15T04:56:13.374Z,18.93
2018-12-15T04:58:41.648Z,18.37
2018-12-15T05:01:09.915Z,19.47
2018-12-15T05:03:38.137Z,20.73
2018-12-15T05:06:06.352Z,19.90
2018-12-15T05:08:34.559Z,20.33
2018-12-15T05:11:02.781Z,20.80
2018-12-15T05:13:30.997Z,19.10
2018-12-15T05:15:59.228Z,19.80
2018-12-15T05:18:27.439Z,18.67
2018-12-15T05:20:55.665Z,19.63
2018-12-15T05:23:23.880Z,20.27
2018-12-15T05:25:52.108Z,20.50
2018-12-15T05:28:20.360Z,20.07
2018-12-15T05:30:48.578Z,19.57
2018-12-15T05:33:16.849Z,20.60
2018-12-15T05:35:45.069Z,19.60
2018-12-15T05:38:13.368Z,21.23
2018-12-15T05:40:41.596Z,22.37
2018-12-15T05:43:09.912Z,23.00
2018-12-15T05:45:38.167Z,22.63
2018-12-15T05:48:06.384Z,22.70
2018-12-15T05:50:34.602Z,23.10
2018-12-15T05:53:02.804Z,18.17
2018-12-15T05:55:31.017Z,18.47
2018-12-15T05:57:59.238Z,16.70
2018-12-15T06:00:27.466Z,16.30
2018-12-15T06:02:55.687Z,14.30
2018-12-15T06:05:24.000Z,14.73
2018-12-15T06:07:52.314Z,15.07
2018-12-15T06:10:20.540Z,14.63
2018-12-15T06:12:48.763Z,14.10
2018-12-15T06:15:16.977Z,15.27
2018-12-15T06:17:45.303Z,13.97
2018-12-15T06:20:13.530Z,14.87
2018-12-15T06:22:41.758Z,15.10
2018-12-15T06:25:09.973Z,14.37
2018-12-15T06:27:38.204Z,14.10
2018-12-15T06:30:07.366Z,14.00
2018-12-15T06:32:35.688Z,13.20
2018-12-15T06:35:04.947Z,14.23
2018-12-15T06:37:33.176Z,13.90
2018-12-15T06:40:01.393Z,12.80
2018-12-15T06:42:29.654Z,12.87
2018-12-15T06:44:57.872Z,13.77
2018-12-15T06:47:26.191Z,14.40
2018-12-15T06:49:54.401Z,13.57
2018-12-15T06:52:22.636Z,12.50
2018-12-15T06:54:50.852Z,13.50
2018-12-15T06:57:19.069Z,13.00
2018-12-15T06:59:47.289Z,11.77
2018-12-15T07:02:15.518Z,11.67
2018-12-15T07:04:43.719Z,13.83
2018-12-15T07:07:11.948Z,13.00
2018-12-15T07:09:40.251Z,14.10
2018-12-15T07:12:08.560Z,12.30
2018-12-15T07:14:36.792Z,11.87
2018-12-15T07:17:05.104Z,13.23
2018-12-15T07:19:33.319Z,13.63
2018-12-15T07:22:01.577Z,12.60
2018-12-15T07:24:29.794Z,12.40
2018-12-15T07:26:58.019Z,13.70
2018-12-15T07:29:26.256Z,11.83
2018-12-15T07:31:54.483Z,12.87
2018-12-15T07:34:22.707Z,11.83
2018-12-15T07:36:50.927Z,13.53
2018-12-15T07:39:19.219Z,11.80
2018-12-15T07:41:47.455Z,11.97
2018-12-15T07:44:15.674Z,12.97
2018-12-15T07:46:43.892Z,12.37
2018-12-15T07:49:12.123Z,12.90
2018-12-15T07:51:40.357Z,11.90
2018-12-15T07:54:08.573Z,13.37
2018-12-15T07:56:36.797Z,12.20
2018-12-15T07:59:05.198Z,12.57
2018-12-15T08:01:33.440Z,13.80
2018-12-15T08:04:01.684Z,12.80
2018-12-15T08:06:30.000Z,13.97
2018-12-15T08:08:58.228Z,13.20
2018-12-15T08:11:31.933Z,12.70
2018-12-15T08:14:09.031Z,13.63
2018-12-15T08:16:37.243Z,12.00
2018-12-15T08:19:05.991Z,12.70
2018-12-15T08:21:34.493Z,13.57
2018-12-15T08:24:02.797Z,14.00
2018-12-15T08:26:31.011Z,12.90
2018-12-15T08:28:59.232Z,13.70
2018-12-15T08:31:27.452Z,13.27
2018-12-15T08:33:55.767Z,13.37
2018-12-15T08:36:24.000Z,13.10
2018-12-15T08:38:53.825Z,15.00
2018-12-15T08:41:22.051Z,12.23
2018-12-15T08:43:50.271Z,13.03
2018-12-15T08:46:18.485Z,13.90
2018-12-15T08:48:46.731Z,13.87
2018-12-15T08:51:15.247Z,13.83
2018-12-15T08:53:43.599Z,12.40
2018-12-15T08:56:11.876Z,14.40
2018-12-15T08:58:40.099Z,13.10
2018-12-15T09:01:08.307Z,12.73
2018-12-15T09:03:36.572Z,15.00
2018-12-15T09:06:04.901Z,13.43
2018-12-15T09:08:33.156Z,13.43
2018-12-15T09:11:01.398Z,13.73
2018-12-15T09:13:29.628Z,12.60
2018-12-15T09:15:57.860Z,13.47
2018-12-15T09:18:26.112Z,15.03
2018-12-15T09:20:54.341Z,14.13
2018-12-15T09:23:22.566Z,14.63
2018-12-15T09:25:50.784Z,14.33
2018-12-15T09:28:19.165Z,14.83
2018-12-15T09:30:47.484Z,13.20
2018-12-15T09:33:15.802Z,14.80
2018-12-15T09:35:44.044Z,22.07
2018-12-15T09:38:12.279Z,17.10
2018-12-15T09:40:40.604Z,14.03
2018-12-15T09:43:08.856Z,15.17
2018-12-15T09:45:37.063Z,13.63
2018-12-15T09:48:05.276Z,14.27
2018-12-15T09:50:34.016Z,14.10
2018-12-15T09:53:02.423Z,14.50
2018-12-15T09:55:30.814Z,14.10
2018-12-15T09:57:59.038Z,14.77
2018-12-15T10:00:27.254Z,15.40
2018-12-15T10:02:55.573Z,16.20
2018-12-15T10:05:23.877Z,13.67
2018-12-15T10:07:52.187Z,14.10
2018-12-15T10:10:20.404Z,14.00
2018-12-15T10:12:48.627Z,14.23
2018-12-15T10:15:16.941Z,13.93
2018-12-15T10:17:45.176Z,15.00
2018-12-15T10:20:13.489Z,14.83
2018-12-15T10:22:41.718Z,14.07
2018-12-15T10:25:09.948Z,14.83
2018-12-15T10:27:38.159Z,15.00
2018-12-15T10:30:12.818Z,15.13
2018-12-15T10:32:46.319Z,15.67
2018-12-15T10:35:14.525Z,14.60
2018-12-15T10:37:42.731Z,15.87
2018-12-15T10:40:11.035Z,14.80
2018-12-15T10:42:39.270Z,14.67
2018-12-15T10:45:07.733Z,14.80
2018-12-15T10:47:36.045Z,14.03
2018-12-15T10:50:05.072Z,15.87
2018-12-15T10:52:33.283Z,14.30
2018-12-15T10:55:01.509Z,16.43
2018-12-15T10:57:29.722Z,15.80
2018-12-15T10:59:57.918Z,16.70
2018-12-15T11:02:26.108Z,16.10
2018-12-15T11:04:54.313Z,15.17
2018-12-15T11:07:22.566Z,13.80
2018-12-15T11:09:50.780Z,16.03
2018-12-15T11:12:18.980Z,15.63
2018-12-15T11:14:47.184Z,15.13
2018-12-15T11:17:15.388Z,14.93
2018-12-15T11:19:43.598Z,16.00
2018-12-15T11:22:11.875Z,14.90
2018-12-15T11:24:40.143Z,15.90
2018-12-15T11:27:08.348Z,14.43
2018-12-15T11:29:36.560Z,16.60
2018-12-15T11:32:04.811Z,14.67
2018-12-15T11:34:33.073Z,15.57
2018-12-15T11:37:01.308Z,15.77
2018-12-15T11:39:29.528Z,15.73
2018-12-15T11:41:57.741Z,16.77
2018-12-15T11:44:25.991Z,15.50
2018-12-15T11:46:54.207Z,16.40
2018-12-15T11:49:22.443Z,15.47
2018-12-15T11:51:50.655Z,17.63
2018-12-15T11:54:18.876Z,16.63
2018-12-15T11:56:47.103Z,15.43
2018-12-15T11:59:15.402Z,16.57
2018-12-15T12:01:43.675Z,16.90
2018-12-15T12:04:11.896Z,15.97
2018-12-15T12:06:40.087Z,16.57
2018-12-15T12:09:08.308Z,17.37
2018-12-15T12:11:36.605Z,17.27
2018-12-15T12:14:04.916Z,16.73
2018-12-15T12:16:33.137Z,22.13
2018-12-15T12:19:01.363Z,18.30
2018-12-15T12:21:29.587Z,15.50
2018-12-15T12:23:57.807Z,17.40
2018-12-15T12:26:26.034Z,15.53
2018-12-15T12:28:54.256Z,16.87
2018-12-15T12:31:22.468Z,15.53
2018-12-15T12:33:50.688Z,15.63
2018-12-15T12:36:18.888Z,16.63
2018-12-15T12:38:47.079Z,15.00
2018-12-15T12:41:15.278Z,17.53
2018-12-15T12:43:43.484Z,16.70
2018-12-15T12:46:11.706Z,15.90
2018-12-15T12:48:39.919Z,16.53
2018-12-15T12:51:08.155Z,16.43
2018-12-15T12:53:36.448Z,15.23
2018-12-15T12:56:04.687Z,16.63
2018-12-15T12:58:32.988Z,16.20
2018-12-15T13:01:01.210Z,15.53
2018-12-15T13:03:29.406Z,14.80
2018-12-15T13:05:57.604Z,16.33
2018-12-15T13:08:26.887Z,17.43
2018-12-15T13:10:55.091Z,17.00
2018-12-15T13:13:23.301Z,17.70
2018-12-15T13:15:51.561Z,17.93
2018-12-15T13:18:19.735Z,18.60
2018-12-15T13:20:47.952Z,16.90
2018-12-15T13:23:16.511Z,16.47
2018-12-15T13:25:45.110Z,16.93
2018-12-15T13:28:13.615Z,16.80
2018-12-15T13:30:42.133Z,16.20
2018-12-15T13:33:21.879Z,16.23
2018-12-15T13:35:50.402Z,16.33
2018-12-15T13:38:18.704Z,16.67
2018-12-15T13:40:47.318Z,16.40
2018-12-15T13:43:15.527Z,16.60
2018-12-15T13:45:43.977Z,17.30
2018-12-15T13:48:12.279Z,17.13
2018-12-15T13:50:40.608Z,18.37
2018-12-15T13:53:08.928Z,16.20
2018-12-15T13:55:37.151Z,17.93
2018-12-15T13:58:05.362Z,17.23
2018-12-15T14:00:33.618Z,17.73
2018-12-15T14:03:01.829Z,17.90
2018-12-15T14:05:30.068Z,17.60
2018-12-15T14:07:58.330Z,16.57
2018-12-15T14:10:26.555Z,17.47
2018-12-15T14:12:54.799Z,17.03
2018-12-15T14:15:23.024Z,16.50
2018-12-15T14:17:51.254Z,17.17
2018-12-15T14:20:19.668Z,16.33
2018-12-15T14:22:47.884Z,17.57
2018-12-15T14:25:16.120Z,16.83
2018-12-15T14:27:44.400Z,16.80
2018-12-15T14:30:12.776Z,16.73
2018-12-15T14:32:41.011Z,16.90
2018-12-15T14:35:09.408Z,17.30
2018-12-15T14:37:37.631Z,17.30
2018-12-15T14:40:07.988Z,19.27
2018-12-15T14:42:36.207Z,21.47
2018-12-15T14:45:04.894Z,21.37
2018-12-15T14:47:33.140Z,21.17
2018-12-15T14:50:01.482Z,21.90
2018-12-15T14:52:29.719Z,20.57
2018-12-15T14:54:57.951Z,22.60
2018-12-15T14:57:26.186Z,20.23
2018-12-15T14:59:54.412Z,18.87
2018-12-15T15:02:22.728Z,19.83
2018-12-15T15:04:51.106Z,18.37
2018-12-15T15:07:19.370Z,18.40
2018-12-15T15:09:47.620Z,19.33
2018-12-15T15:12:15.861Z,18.57
2018-12-15T15:14:44.108Z,17.67
2018-12-15T15:17:12.347Z,20.70
2018-12-15T15:19:40.570Z,18.70
2018-12-15T15:22:09.026Z,18.23
2018-12-15T15:24:37.443Z,19.13
2018-12-15T15:27:05.860Z,18.13
2018-12-15T15:29:34.134Z,17.47
2018-12-15T15:32:02.513Z,19.93
2018-12-15T15:34:30.753Z,19.70
2018-12-15T15:36:58.968Z,19.03
2018-12-15T15:39:27.251Z,18.60
2018-12-15T15:41:55.487Z,19.40
2018-12-15T15:44:23.681Z,19.00
2018-12-15T15:46:51.975Z,19.43
2018-12-15T15:49:20.338Z,22.53
2018-12-15T15:51:48.637Z,26.57
2018-12-15T15:54:16.858Z,25.23
2018-12-15T15:56:45.056Z,24.27
2018-12-15T15:59:13.256Z,22.40
2018-12-15T16:01:41.463Z,21.53
2018-12-15T16:04:09.751Z,20.50
2018-12-15T16:06:37.964Z,21.63
2018-12-15T16:09:08.931Z,24.63
2018-12-15T16:11:39.550Z,21.50
2018-12-15T16:14:07.720Z,24.40
2018-12-15T16:16:36.040Z,21.90
2018-12-15T16:19:04.432Z,22.10
2018-12-15T16:21:32.937Z,21.80
2018-12-15T16:24:01.577Z,20.73
2018-12-15T16:26:29.817Z,21.50
2018-12-15T16:28:58.280Z,22.60
2018-12-15T16:31:26.826Z,21.23
2018-12-15T16:33:55.320Z,22.63
2018-12-15T16:36:25.387Z,20.47
2018-12-15T16:38:55.134Z,21.23
2018-12-15T16:41:23.512Z,21.10
2018-12-15T16:43:51.867Z,20.23
2018-12-15T16:46:20.486Z,21.13
2018-12-15T16:48:49.232Z,22.23
2018-12-15T16:51:17.649Z,22.10
2018-12-15T16:53:45.858Z,22.47
2018-12-15T16:56:14.207Z,23.60
2018-12-15T16:58:42.437Z,21.03
2018-12-15T17:01:10.846Z,20.90
2018-12-15T17:03:39.140Z,22.57
2018-12-15T17:06:07.460Z,21.47
2018-12-15T17:08:35.688Z,23.23
2018-12-15T17:11:04.149Z,26.30
2018-12-15T17:13:33.300Z,24.30
2018-12-15T17:16:01.524Z,22.73
2018-12-15T17:18:29.740Z,24.80
2018-12-15T17:20:58.154Z,23.60
2018-12-15T17:23:26.464Z,23.40
2018-12-15T17:25:54.690Z,24.77
2018-12-15T17:28:22.898Z,24.40
2018-12-15T17:30:51.260Z,25.40
2018-12-15T17:33:19.578Z,27.00
2018-12-15T17:35:47.828Z,34.43
2018-12-15T17:38:16.152Z,31.73
2018-12-15T17:40:44.378Z,26.80
2018-12-15T17:43:12.700Z,24.20
2018-12-15T17:45:41.025Z,25.03
2018-12-15T17:48:09.261Z,24.57
2018-12-15T17:50:37.505Z,23.13
2018-12-15T17:53:05.845Z,25.73
2018-12-15T17:55:34.181Z,24.90
2018-12-15T17:58:02.419Z,25.00
2018-12-15T18:00:30.672Z,22.10
2018-12-15T18:02:58.924Z,24.27
2018-12-15T18:05:27.171Z,24.50
2018-12-15T18:07:55.453Z,22.43
2018-12-15T18:10:23.759Z,23.67
2018-12-15T18:12:52.098Z,21.00
2018-12-15T18:15:20.412Z,20.90
2018-12-15T18:17:48.642Z,21.73
2018-12-15T18:20:16.928Z,22.80
2018-12-15T18:22:45.179Z,22.07
2018-12-15T18:25:13.560Z,21.53
2018-12-15T18:27:41.812Z,23.17
2018-12-15T18:30:11.282Z,20.00
2018-12-15T18:32:39.510Z,24.13
2018-12-15T18:35:07.883Z,23.40
2018-12-15T18:37:36.116Z,22.57
2018-12-15T18:40:04.525Z,22.57
2018-12-15T18:42:32.736Z,23.13
2018-12-15T18:45:00.940Z,24.43
2018-12-15T18:47:29.165Z,24.27
2018-12-15T18:49:57.426Z,21.50
2018-12-15T18:52:25.786Z,22.17
2018-12-15T18:54:53.982Z,22.13
2018-12-15T18:57:22.198Z,21.67
2018-12-15T18:59:50.415Z,20.47
2018-12-15T19:02:18.847Z,21.97
2018-12-15T19:04:47.149Z,21.70
2018-12-15T19:07:15.372Z,22.50
2018-12-15T19:09:43.588Z,22.30
2018-12-15T19:12:11.980Z,21.50
2018-12-15T19:14:40.441Z,23.80
2018-12-15T19:17:08.730Z,25.07
2018-12-15T19:19:37.161Z,24.43
2018-12-15T19:22:05.366Z,23.27
2018-12-15T19:24:33.570Z,24.60
2018-12-15T19:27:01.878Z,24.20
2018-12-15T19:29:30.090Z,23.50
2018-12-15T19:31:58.317Z,24.30
2018-12-15T19:34:26.573Z,21.93
2018-12-15T19:36:54.802Z,22.60
2018-12-15T19:39:22.995Z,22.57
2018-12-15T19:41:51.203Z,23.13
2018-12-15T19:44:19.419Z,22.70
2018-12-15T19:46:47.728Z,22.37
2018-12-15T19:49:15.940Z,22.87
2018-12-15T19:51:44.237Z,23.23
2018-12-15T19:54:12.440Z,24.10
2018-12-15T19:56:40.735Z,22.90
2018-12-15T19:59:13.202Z,21.77
2018-12-15T20:01:41.809Z,22.30
2018-12-15T20:04:10.062Z,22.07
2018-12-15T20:06:38.344Z,21.33
2018-12-15T20:09:09.084Z,21.07
2018-12-15T20:11:37.533Z,20.67
2018-12-15T20:14:05.840Z,21.10
2018-12-15T20:16:34.124Z,21.30
2018-12-15T20:19:02.436Z,22.87
2018-12-15T20:21:35.953Z,20.77
2018-12-15T20:24:00.968Z,20.83
2018-12-15T20:26:29.300Z,23.43
2018-12-15T20:28:57.528Z,21.30
2018-12-15T20:31:25.740Z,21.60
2018-12-15T20:33:53.998Z,21.17
2018-12-15T20:36:22.183Z,21.17
2018-12-15T20:38:50.424Z,20.87
2018-12-15T20:41:19.312Z,21.60
2018-12-15T20:43:47.830Z,21.93
2018-12-15T20:46:16.062Z,22.47
2018-12-15T20:48:44.356Z,21.87
2018-12-15T20:51:12.568Z,23.00
2018-12-15T20:53:40.789Z,22.90
2018-12-15T20:56:09.001Z,23.47
2018-12-15T20:58:37.249Z,21.03
2018-12-15T21:01:05.530Z,23.13
2018-12-15T21:03:33.759Z,21.40
2018-12-15T21:06:02.036Z,22.00
2018-12-15T21:08:30.248Z,19.80
2018-12-15T21:10:58.456Z,21.93
2018-12-15T21:13:26.748Z,20.13
2018-12-15T21:15:57.499Z,19.83
2018-12-15T21:18:26.097Z,21.17
2018-12-15T21:20:54.319Z,21.00
2018-12-15T21:23:22.600Z,19.60
2018-12-15T21:25:50.819Z,18.97
2018-12-15T21:28:19.114Z,20.60
2018-12-15T21:30:47.450Z,19.73
2018-12-15T21:33:15.688Z,19.43
2018-12-15T21:35:43.905Z,18.77
2018-12-15T21:38:12.108Z,22.70
2018-12-15T21:40:40.320Z,24.33
2018-12-15T21:43:08.568Z,21.67
2018-12-15T21:45:36.772Z,21.50
2018-12-15T21:48:05.016Z,22.77
2018-12-15T21:50:33.301Z,24.93
2018-12-15T21:53:01.502Z,24.20
2018-12-15T21:55:29.691Z,21.90
2018-12-15T21:57:57.900Z,23.07
2018-12-15T22:00:26.100Z,22.80
2018-12-15T22:02:54.389Z,23.50
2018-12-15T22:05:22.602Z,23.37
2018-12-15T22:07:50.804Z,22.90
2018-12-15T22:10:19.008Z,23.57
2018-12-15T22:12:47.249Z,24.90
2018-12-15T22:15:15.472Z,23.23
2018-12-15T22:17:43.689Z,23.50
2018-12-15T22:20:12.091Z,24.53
2018-12-15T22:22:40.393Z,24.43
2018-12-15T22:25:08.604Z,23.73
2018-12-15T22:27:37.094Z,23.10
2018-12-15T22:30:06.188Z,24.13
2018-12-15T22:32:34.398Z,22.73
2018-12-15T22:35:02.716Z,22.57
2018-12-15T22:37:31.032Z,23.33
2018-12-15T22:39:59.271Z,22.77
2018-12-15T22:42:27.487Z,21.90
2018-12-15T22:44:55.715Z,21.47
2018-12-15T22:47:23.936Z,21.57
2018-12-15T22:49:52.157Z,21.83
2018-12-15T22:52:20.377Z,22.50
2018-12-15T22:54:48.605Z,22.90
2018-12-15T22:57:16.845Z,21.67
2018-12-15T22:59:45.076Z,23.10
2018-12-15T23:02:13.380Z,21.43
2018-12-15T23:04:41.622Z,20.00
2018-12-15T23:07:09.864Z,21.80
2018-12-15T23:09:38.167Z,20.77
2018-12-15T23:12:06.677Z,20.73
2018-12-15T23:14:34.913Z,20.77
2018-12-15T23:17:03.189Z,21.50
2018-12-15T23:19:31.424Z,19.90
2018-12-15T23:22:00.792Z,19.70
2018-12-15T23:24:29.029Z,21.00
2018-12-15T23:26:57.235Z,19.27
2018-12-15T23:29:25.692Z,20.97
2018-12-15T23:31:53.905Z,18.67
2018-12-15T23:34:22.140Z,19.70
2018-12-15T23:36:50.351Z,20.63
2018-12-15T23:39:18.588Z,19.10
2018-12-15T23:41:46.808Z,21.10
2018-12-15T23:44:15.129Z,20.93
2018-12-15T23:46:43.340Z,21.10
2018-12-15T23:49:11.609Z,19.50
2018-12-15T23:51:39.840Z,19.87
2018-12-15T23:54:08.068Z,21.50
2018-12-15T23:56:36.307Z,21.40
2018-12-15T23:59:04.528Z,20.30
